sensor_id;sensor_type;location;lat;lon;timestamp;P1;durP1;ratioP1;P2;durP2;ratioP2
24517;SDS011;12678;51.336;12.406;2023-06-14T00:01:35;1.55;;;1.35;;
24517;SDS011;12678;51.336;12.406;2023-06-14T00:04:03;2.47;;;1.67;;
24517;SDS011;12678;51.336;12.406;2023-06-14T00:06:33;6.07;;;1.85;;
24517;SDS011;12678;51.336;12.406;2023-06-14T00:08:59;5.35;;;1.85;;
24517;SDS011;12678;51.336;12.406;2023-06-14T00:11:25;2.47;;;1.77;;
24517;SDS011;12678;51.336;12.406;2023-06-14T00:13:52;4.57;;;2.00;;
24517;SDS011;12678;51.336;12.406;2023-06-14T00:16:17;2.05;;;1.75;;
24517;SDS011;12678;51.336;12.406;2023-06-14T00:18:44;2.33;;;1.67;;
24517;SDS011;12678;51.336;12.406;2023-06-14T00:21:10;2.50;;;1.63;;
24517;SDS011;12678;51.336;12.406;2023-06-14T00:23:37;4.00;;;2.38;;
24517;SDS011;12678;51.336;12.406;2023-06-14T00:26:02;3.72;;;1.70;;
24517;SDS011;12678;51.336;12.406;2023-06-14T00:28:28;4.13;;;1.92;;
24517;SDS011;12678;51.336;12.406;2023-06-14T00:30:54;2.70;;;1.67;;
24517;SDS011;12678;51.336;12.406;2023-06-14T00:33:20;2.38;;;2.00;;
24517;SDS011;12678;51.336;12.406;2023-06-14T00:35:46;2.55;;;1.60;;
24517;SDS011;12678;51.336;12.406;2023-06-14T00:38:12;5.47;;;1.63;;
24517;SDS011;12678;51.336;12.406;2023-06-14T00:40:38;2.63;;;1.70;;
24517;SDS011;12678;51.336;12.406;2023-06-14T00:43:04;10.10;;;1.80;;
24517;SDS011;12678;51.336;12.406;2023-06-14T00:45:29;4.97;;;1.95;;
24517;SDS011;12678;51.336;12.406;2023-06-14T00:47:56;2.65;;;1.60;;
24517;SDS011;12678;51.336;12.406;2023-06-14T00:50:22;4.00;;;2.38;;
24517;SDS011;12678;51.336;12.406;2023-06-14T00:52:49;9.55;;;2.42;;
24517;SDS011;12678;51.336;12.406;2023-06-14T00:55:15;3.58;;;1.98;;
24517;SDS011;12678;51.336;12.406;2023-06-14T00:57:41;2.83;;;1.90;;
24517;SDS011;12678;51.336;12.406;2023-06-14T01:00:07;3.95;;;2.40;;
24517;SDS011;12678;51.336;12.406;2023-06-14T01:02:38;3.25;;;2.03;;
24517;SDS011;12678;51.336;12.406;2023-06-14T01:05:04;4.20;;;2.03;;
24517;SDS011;12678;51.336;12.406;2023-06-14T01:15:54;2.75;;;2.00;;
24517;SDS011;12678;51.336;12.406;2023-06-14T01:18:20;10.77;;;2.10;;
24517;SDS011;12678;51.336;12.406;2023-06-14T01:20:49;4.57;;;2.58;;
24517;SDS011;12678;51.336;12.406;2023-06-14T01:23:18;7.63;;;2.65;;
24517;SDS011;12678;51.336;12.406;2023-06-14T01:25:45;2.67;;;1.92;;
24517;SDS011;12678;51.336;12.406;2023-06-14T01:28:12;4.07;;;2.25;;
24517;SDS011;12678;51.336;12.406;2023-06-14T01:30:42;2.75;;;1.95;;
24517;SDS011;12678;51.336;12.406;2023-06-14T01:33:14;6.20;;;2.20;;
24517;SDS011;12678;51.336;12.406;2023-06-14T01:35:43;3.10;;;2.22;;
24517;SDS011;12678;51.336;12.406;2023-06-14T01:38:10;3.72;;;2.25;;
24517;SDS011;12678;51.336;12.406;2023-06-14T01:40:38;4.20;;;2.50;;
24517;SDS011;12678;51.336;12.406;2023-06-14T01:43:04;5.57;;;2.30;;
24517;SDS011;12678;51.336;12.406;2023-06-14T01:45:32;3.70;;;2.50;;
24517;SDS011;12678;51.336;12.406;2023-06-14T01:47:59;3.38;;;2.38;;
24517;SDS011;12678;51.336;12.406;2023-06-14T01:50:30;6.47;;;2.30;;
24517;SDS011;12678;51.336;12.406;2023-06-14T01:52:56;2.58;;;2.03;;
24517;SDS011;12678;51.336;12.406;2023-06-14T01:55:22;4.45;;;2.78;;
24517;SDS011;12678;51.336;12.406;2023-06-14T01:57:53;5.82;;;2.30;;
24517;SDS011;12678;51.336;12.406;2023-06-14T02:00:19;3.03;;;2.08;;
24517;SDS011;12678;51.336;12.406;2023-06-14T02:02:46;4.80;;;2.65;;
24517;SDS011;12678;51.336;12.406;2023-06-14T02:05:12;2.83;;;2.17;;
24517;SDS011;12678;51.336;12.406;2023-06-14T02:07:37;6.63;;;2.50;;
24517;SDS011;12678;51.336;12.406;2023-06-14T02:10:03;4.53;;;2.50;;
24517;SDS011;12678;51.336;12.406;2023-06-14T02:12:30;3.30;;;1.90;;
24517;SDS011;12678;51.336;12.406;2023-06-14T02:14:55;5.40;;;2.20;;
24517;SDS011;12678;51.336;12.406;2023-06-14T02:17:21;5.47;;;2.40;;
24517;SDS011;12678;51.336;12.406;2023-06-14T02:19:47;3.28;;;2.38;;
24517;SDS011;12678;51.336;12.406;2023-06-14T02:22:14;5.07;;;1.92;;
24517;SDS011;12678;51.336;12.406;2023-06-14T02:24:40;2.92;;;1.88;;
24517;SDS011;12678;51.336;12.406;2023-06-14T02:27:07;2.42;;;1.70;;
24517;SDS011;12678;51.336;12.406;2023-06-14T02:29:35;3.08;;;1.83;;
24517;SDS011;12678;51.336;12.406;2023-06-14T02:32:01;4.22;;;2.38;;
24517;SDS011;12678;51.336;12.406;2023-06-14T02:34:27;2.17;;;1.65;;
24517;SDS011;12678;51.336;12.406;2023-06-14T02:36:53;3.33;;;2.10;;
24517;SDS011;12678;51.336;12.406;2023-06-14T02:39:18;6.15;;;1.90;;
24517;SDS011;12678;51.336;12.406;2023-06-14T02:41:46;2.20;;;2.00;;
24517;SDS011;12678;51.336;12.406;2023-06-14T02:44:13;5.78;;;1.90;;
24517;SDS011;12678;51.336;12.406;2023-06-14T02:46:39;3.85;;;2.20;;
24517;SDS011;12678;51.336;12.406;2023-06-14T02:49:06;4.85;;;2.40;;
24517;SDS011;12678;51.336;12.406;2023-06-14T02:51:32;3.55;;;2.42;;
24517;SDS011;12678;51.336;12.406;2023-06-14T02:53:58;1.95;;;1.75;;
24517;SDS011;12678;51.336;12.406;2023-06-14T02:56:23;3.65;;;2.00;;
24517;SDS011;12678;51.336;12.406;2023-06-14T02:58:51;4.05;;;2.42;;
24517;SDS011;12678;51.336;12.406;2023-06-14T03:01:18;2.63;;;2.05;;
24517;SDS011;12678;51.336;12.406;2023-06-14T03:03:45;7.00;;;4.03;;
24517;SDS011;12678;51.336;12.406;2023-06-14T03:06:11;2.28;;;1.85;;
24517;SDS011;12678;51.336;12.406;2023-06-14T03:08:38;4.00;;;2.20;;
24517;SDS011;12678;51.336;12.406;2023-06-14T03:11:07;3.90;;;2.22;;
24517;SDS011;12678;51.336;12.406;2023-06-14T03:13:36;6.68;;;2.13;;
24517;SDS011;12678;51.336;12.406;2023-06-14T03:16:02;5.35;;;2.00;;
24517;SDS011;12678;51.336;12.406;2023-06-14T03:18:31;3.10;;;2.20;;
24517;SDS011;12678;51.336;12.406;2023-06-14T03:21:00;2.97;;;2.30;;
24517;SDS011;12678;51.336;12.406;2023-06-14T03:23:28;2.08;;;1.73;;
24517;SDS011;12678;51.336;12.406;2023-06-14T03:25:54;3.78;;;2.20;;
24517;SDS011;12678;51.336;12.406;2023-06-14T03:28:21;6.07;;;2.20;;
24517;SDS011;12678;51.336;12.406;2023-06-14T03:30:46;4.40;;;2.35;;
24517;SDS011;12678;51.336;12.406;2023-06-14T03:33:12;3.88;;;1.85;;
24517;SDS011;12678;51.336;12.406;2023-06-14T03:35:38;6.70;;;2.40;;
24517;SDS011;12678;51.336;12.406;2023-06-14T03:38:04;4.45;;;2.40;;
24517;SDS011;12678;51.336;12.406;2023-06-14T03:40:30;2.22;;;1.80;;
24517;SDS011;12678;51.336;12.406;2023-06-14T03:42:56;4.97;;;2.60;;
24517;SDS011;12678;51.336;12.406;2023-06-14T03:45:21;2.50;;;1.77;;
24517;SDS011;12678;51.336;12.406;2023-06-14T03:47:47;3.17;;;2.25;;
24517;SDS011;12678;51.336;12.406;2023-06-14T03:50:13;3.55;;;2.10;;
24517;SDS011;12678;51.336;12.406;2023-06-14T03:52:39;3.78;;;2.17;;
24517;SDS011;12678;51.336;12.406;2023-06-14T03:55:07;3.35;;;2.45;;
24517;SDS011;12678;51.336;12.406;2023-06-14T03:57:33;9.93;;;2.10;;
24517;SDS011;12678;51.336;12.406;2023-06-14T03:59:59;6.03;;;2.97;;
24517;SDS011;12678;51.336;12.406;2023-06-14T04:02:25;3.55;;;2.70;;
24517;SDS011;12678;51.336;12.406;2023-06-14T04:04:53;2.67;;;1.98;;
24517;SDS011;12678;51.336;12.406;2023-06-14T04:07:19;3.88;;;2.40;;
24517;SDS011;12678;51.336;12.406;2023-06-14T04:09:46;3.67;;;2.30;;
24517;SDS011;12678;51.336;12.406;2023-06-14T04:12:12;4.95;;;2.25;;
24517;SDS011;12678;51.336;12.406;2023-06-14T04:14:38;7.20;;;2.25;;
24517;SDS011;12678;51.336;12.406;2023-06-14T04:17:05;3.75;;;1.98;;
24517;SDS011;12678;51.336;12.406;2023-06-14T04:19:31;3.78;;;2.63;;
24517;SDS011;12678;51.336;12.406;2023-06-14T04:21:58;6.18;;;2.50;;
24517;SDS011;12678;51.336;12.406;2023-06-14T04:24:26;2.30;;;2.05;;
24517;SDS011;12678;51.336;12.406;2023-06-14T04:26:57;3.42;;;2.53;;
24517;SDS011;12678;51.336;12.406;2023-06-14T04:29:24;4.45;;;2.22;;
24517;SDS011;12678;51.336;12.406;2023-06-14T04:31:53;5.60;;;2.55;;
24517;SDS011;12678;51.336;12.406;2023-06-14T04:34:19;4.90;;;2.60;;
24517;SDS011;12678;51.336;12.406;2023-06-14T04:36:46;4.15;;;2.35;;
24517;SDS011;12678;51.336;12.406;2023-06-14T04:39:17;6.38;;;2.33;;
24517;SDS011;12678;51.336;12.406;2023-06-14T04:41:43;3.70;;;2.40;;
24517;SDS011;12678;51.336;12.406;2023-06-14T04:44:09;5.35;;;2.78;;
24517;SDS011;12678;51.336;12.406;2023-06-14T04:46:36;4.30;;;2.58;;
24517;SDS011;12678;51.336;12.406;2023-06-14T04:49:17;2.78;;;2.38;;
24517;SDS011;12678;51.336;12.406;2023-06-14T04:51:43;3.38;;;2.40;;
24517;SDS011;12678;51.336;12.406;2023-06-14T04:54:10;4.10;;;2.75;;
24517;SDS011;12678;51.336;12.406;2023-06-14T04:56:40;3.45;;;2.10;;
24517;SDS011;12678;51.336;12.406;2023-06-14T04:59:09;3.50;;;2.50;;
24517;SDS011;12678;51.336;12.406;2023-06-14T05:01:39;5.18;;;2.83;;
24517;SDS011;12678;51.336;12.406;2023-06-14T05:04:05;2.67;;;2.30;;
24517;SDS011;12678;51.336;12.406;2023-06-14T05:06:31;2.40;;;2.10;;
24517;SDS011;12678;51.336;12.406;2023-06-14T05:08:56;10.25;;;2.38;;
24517;SDS011;12678;51.336;12.406;2023-06-14T05:11:22;3.67;;;2.38;;
24517;SDS011;12678;51.336;12.406;2023-06-14T05:13:49;3.90;;;2.72;;
24517;SDS011;12678;51.336;12.406;2023-06-14T05:16:16;5.47;;;2.55;;
24517;SDS011;12678;51.336;12.406;2023-06-14T05:18:44;3.85;;;2.72;;
24517;SDS011;12678;51.336;12.406;2023-06-14T05:21:11;3.65;;;2.20;;
24517;SDS011;12678;51.336;12.406;2023-06-14T05:23:36;5.35;;;3.00;;
24517;SDS011;12678;51.336;12.406;2023-06-14T05:26:02;3.53;;;2.47;;
24517;SDS011;12678;51.336;12.406;2023-06-14T05:28:29;4.47;;;3.03;;
24517;SDS011;12678;51.336;12.406;2023-06-14T05:30:55;5.90;;;2.92;;
24517;SDS011;12678;51.336;12.406;2023-06-14T05:33:21;5.85;;;2.90;;
24517;SDS011;12678;51.336;12.406;2023-06-14T05:35:47;4.53;;;3.10;;
24517;SDS011;12678;51.336;12.406;2023-06-14T05:38:12;4.78;;;2.70;;
24517;SDS011;12678;51.336;12.406;2023-06-14T05:40:38;5.90;;;3.05;;
24517;SDS011;12678;51.336;12.406;2023-06-14T05:43:03;7.15;;;3.15;;
24517;SDS011;12678;51.336;12.406;2023-06-14T05:45:29;5.07;;;3.33;;
24517;SDS011;12678;51.336;12.406;2023-06-14T05:47:55;5.22;;;3.40;;
24517;SDS011;12678;51.336;12.406;2023-06-14T05:50:20;6.95;;;3.40;;
24517;SDS011;12678;51.336;12.406;2023-06-14T05:52:46;3.60;;;2.97;;
24517;SDS011;12678;51.336;12.406;2023-06-14T05:55:12;3.38;;;2.53;;
24517;SDS011;12678;51.336;12.406;2023-06-14T05:57:38;4.60;;;2.80;;
24517;SDS011;12678;51.336;12.406;2023-06-14T06:00:03;5.93;;;3.05;;
24517;SDS011;12678;51.336;12.406;2023-06-14T06:02:56;4.30;;;3.10;;
24517;SDS011;12678;51.336;12.406;2023-06-14T06:05:26;5.30;;;3.42;;
24517;SDS011;12678;51.336;12.406;2023-06-14T06:07:51;4.63;;;3.33;;
24517;SDS011;12678;51.336;12.406;2023-06-14T06:10:17;5.03;;;3.53;;
24517;SDS011;12678;51.336;12.406;2023-06-14T06:12:42;4.82;;;3.45;;
24517;SDS011;12678;51.336;12.406;2023-06-14T06:15:08;5.40;;;3.65;;
24517;SDS011;12678;51.336;12.406;2023-06-14T06:17:37;6.80;;;3.88;;
24517;SDS011;12678;51.336;12.406;2023-06-14T06:20:04;5.68;;;3.58;;
24517;SDS011;12678;51.336;12.406;2023-06-14T06:22:33;7.18;;;3.28;;
24517;SDS011;12678;51.336;12.406;2023-06-14T06:24:59;5.18;;;3.65;;
24517;SDS011;12678;51.336;12.406;2023-06-14T06:27:25;13.95;;;3.50;;
24517;SDS011;12678;51.336;12.406;2023-06-14T06:29:51;6.47;;;3.72;;
24517;SDS011;12678;51.336;12.406;2023-06-14T06:32:17;4.78;;;3.40;;
24517;SDS011;12678;51.336;12.406;2023-06-14T06:34:42;9.88;;;4.00;;
24517;SDS011;12678;51.336;12.406;2023-06-14T06:37:08;5.93;;;3.50;;
24517;SDS011;12678;51.336;12.406;2023-06-14T06:39:34;8.48;;;3.70;;
24517;SDS011;12678;51.336;12.406;2023-06-14T06:42:00;8.50;;;3.53;;
24517;SDS011;12678;51.336;12.406;2023-06-14T06:44:26;5.18;;;3.25;;
24517;SDS011;12678;51.336;12.406;2023-06-14T06:46:51;8.23;;;3.47;;
24517;SDS011;12678;51.336;12.406;2023-06-14T06:49:17;8.38;;;3.08;;
24517;SDS011;12678;51.336;12.406;2023-06-14T06:51:43;8.90;;;3.28;;
24517;SDS011;12678;51.336;12.406;2023-06-14T06:54:23;13.00;;;3.28;;
24517;SDS011;12678;51.336;12.406;2023-06-14T06:56:49;4.10;;;3.17;;
24517;SDS011;12678;51.336;12.406;2023-06-14T06:59:15;5.43;;;3.10;;
24517;SDS011;12678;51.336;12.406;2023-06-14T07:01:41;5.55;;;3.33;;
24517;SDS011;12678;51.336;12.406;2023-06-14T07:04:07;7.47;;;2.72;;
24517;SDS011;12678;51.336;12.406;2023-06-14T07:06:33;3.83;;;2.88;;
24517;SDS011;12678;51.336;12.406;2023-06-14T07:08:59;3.15;;;2.80;;
24517;SDS011;12678;51.336;12.406;2023-06-14T07:11:29;3.47;;;2.85;;
24517;SDS011;12678;51.336;12.406;2023-06-14T07:13:55;6.72;;;4.00;;
24517;SDS011;12678;51.336;12.406;2023-06-14T07:16:20;3.75;;;2.85;;
24517;SDS011;12678;51.336;12.406;2023-06-14T07:18:46;2.60;;;2.35;;
24517;SDS011;12678;51.336;12.406;2023-06-14T07:21:12;4.55;;;2.70;;
24517;SDS011;12678;51.336;12.406;2023-06-14T07:23:38;6.30;;;3.58;;
24517;SDS011;12678;51.336;12.406;2023-06-14T07:26:03;4.45;;;2.78;;
24517;SDS011;12678;51.336;12.406;2023-06-14T07:28:30;2.85;;;2.30;;
24517;SDS011;12678;51.336;12.406;2023-06-14T07:30:55;3.42;;;2.50;;
24517;SDS011;12678;51.336;12.406;2023-06-14T07:33:21;6.50;;;2.65;;
24517;SDS011;12678;51.336;12.406;2023-06-14T07:35:47;3.95;;;2.50;;
24517;SDS011;12678;51.336;12.406;2023-06-14T07:38:14;3.30;;;2.67;;
24517;SDS011;12678;51.336;12.406;2023-06-14T07:40:40;3.83;;;2.45;;
24517;SDS011;12678;51.336;12.406;2023-06-14T07:43:05;9.18;;;2.97;;
24517;SDS011;12678;51.336;12.406;2023-06-14T07:45:31;3.67;;;2.75;;
24517;SDS011;12678;51.336;12.406;2023-06-14T07:47:56;6.65;;;2.80;;
24517;SDS011;12678;51.336;12.406;2023-06-14T07:50:22;3.47;;;2.70;;
24517;SDS011;12678;51.336;12.406;2023-06-14T07:52:48;4.18;;;2.88;;
24517;SDS011;12678;51.336;12.406;2023-06-14T07:55:15;2.70;;;2.30;;
24517;SDS011;12678;51.336;12.406;2023-06-14T07:57:41;6.05;;;2.85;;
24517;SDS011;12678;51.336;12.406;2023-06-14T08:00:08;5.93;;;2.85;;
24517;SDS011;12678;51.336;12.406;2023-06-14T08:02:41;3.63;;;2.78;;
24517;SDS011;12678;51.336;12.406;2023-06-14T08:05:10;5.85;;;2.92;;
24517;SDS011;12678;51.336;12.406;2023-06-14T08:07:37;3.10;;;2.63;;
24517;SDS011;12678;51.336;12.406;2023-06-14T08:10:05;3.50;;;2.42;;
24517;SDS011;12678;51.336;12.406;2023-06-14T08:12:32;3.05;;;2.38;;
24517;SDS011;12678;51.336;12.406;2023-06-14T08:14:59;2.78;;;2.22;;
24517;SDS011;12678;51.336;12.406;2023-06-14T08:17:25;4.30;;;2.83;;
24517;SDS011;12678;51.336;12.406;2023-06-14T08:19:51;2.95;;;2.38;;
24517;SDS011;12678;51.336;12.406;2023-06-14T08:22:19;4.07;;;2.75;;
24517;SDS011;12678;51.336;12.406;2023-06-14T08:24:46;4.32;;;2.80;;
24517;SDS011;12678;51.336;12.406;2023-06-14T08:27:12;4.20;;;2.42;;
24517;SDS011;12678;51.336;12.406;2023-06-14T08:29:38;3.70;;;2.53;;
24517;SDS011;12678;51.336;12.406;2023-06-14T08:32:05;3.95;;;2.58;;
24517;SDS011;12678;51.336;12.406;2023-06-14T08:34:31;4.85;;;3.08;;
24517;SDS011;12678;51.336;12.406;2023-06-14T08:36:57;5.50;;;2.97;;
24517;SDS011;12678;51.336;12.406;2023-06-14T08:39:22;3.47;;;2.65;;
24517;SDS011;12678;51.336;12.406;2023-06-14T08:41:48;4.80;;;3.08;;
24517;SDS011;12678;51.336;12.406;2023-06-14T08:44:15;3.95;;;2.72;;
24517;SDS011;12678;51.336;12.406;2023-06-14T08:46:41;4.25;;;2.78;;
24517;SDS011;12678;51.336;12.406;2023-06-14T08:49:08;6.25;;;2.50;;
24517;SDS011;12678;51.336;12.406;2023-06-14T08:51:37;5.80;;;2.60;;
24517;SDS011;12678;51.336;12.406;2023-06-14T08:54:05;7.25;;;2.72;;
24517;SDS011;12678;51.336;12.406;2023-06-14T08:56:32;5.78;;;2.65;;
24517;SDS011;12678;51.336;12.406;2023-06-14T08:58:59;5.97;;;2.50;;
24517;SDS011;12678;51.336;12.406;2023-06-14T09:01:29;8.13;;;2.72;;
24517;SDS011;12678;51.336;12.406;2023-06-14T09:04:01;4.22;;;2.78;;
24517;SDS011;12678;51.336;12.406;2023-06-14T09:06:27;3.55;;;2.25;;
24517;SDS011;12678;51.336;12.406;2023-06-14T09:08:54;5.13;;;1.98;;
24517;SDS011;12678;51.336;12.406;2023-06-14T09:11:22;2.63;;;2.15;;
24517;SDS011;12678;51.336;12.406;2023-06-14T09:13:48;8.75;;;2.50;;
24517;SDS011;12678;51.336;12.406;2023-06-14T09:16:15;3.05;;;2.45;;
24517;SDS011;12678;51.336;12.406;2023-06-14T09:18:42;2.60;;;2.40;;
24517;SDS011;12678;51.336;12.406;2023-06-14T09:21:10;3.63;;;2.08;;
24517;SDS011;12678;51.336;12.406;2023-06-14T09:23:37;2.72;;;2.28;;
24517;SDS011;12678;51.336;12.406;2023-06-14T09:26:07;4.32;;;2.28;;
24517;SDS011;12678;51.336;12.406;2023-06-14T09:28:36;3.55;;;2.08;;
24517;SDS011;12678;51.336;12.406;2023-06-14T09:31:02;2.30;;;1.83;;
24517;SDS011;12678;51.336;12.406;2023-06-14T09:33:27;5.30;;;2.05;;
24517;SDS011;12678;51.336;12.406;2023-06-14T09:35:57;2.35;;;2.00;;
24517;SDS011;12678;51.336;12.406;2023-06-14T09:38:24;3.08;;;2.20;;
24517;SDS011;12678;51.336;12.406;2023-06-14T09:40:51;6.18;;;3.38;;
24517;SDS011;12678;51.336;12.406;2023-06-14T09:43:16;2.17;;;1.75;;
24517;SDS011;12678;51.336;12.406;2023-06-14T09:45:43;4.78;;;2.40;;
24517;SDS011;12678;51.336;12.406;2023-06-14T09:48:11;11.70;;;1.83;;
24517;SDS011;12678;51.336;12.406;2023-06-14T09:50:42;2.55;;;2.05;;
24517;SDS011;12678;51.336;12.406;2023-06-14T09:53:13;2.42;;;2.10;;
24517;SDS011;12678;51.336;12.406;2023-06-14T09:55:40;2.70;;;1.80;;
24517;SDS011;12678;51.336;12.406;2023-06-14T09:58:07;3.78;;;2.10;;
24517;SDS011;12678;51.336;12.406;2023-06-14T10:00:35;2.70;;;2.03;;
24517;SDS011;12678;51.336;12.406;2023-06-14T10:03:11;2.95;;;2.03;;
24517;SDS011;12678;51.336;12.406;2023-06-14T10:05:44;5.55;;;1.83;;
24517;SDS011;12678;51.336;12.406;2023-06-14T10:08:15;4.15;;;1.98;;
24517;SDS011;12678;51.336;12.406;2023-06-14T10:10:44;2.40;;;1.92;;
24517;SDS011;12678;51.336;12.406;2023-06-14T10:13:10;2.70;;;1.98;;
24517;SDS011;12678;51.336;12.406;2023-06-14T10:18:49;2.55;;;2.05;;
24517;SDS011;12678;51.336;12.406;2023-06-14T10:21:27;3.25;;;2.30;;
24517;SDS011;12678;51.336;12.406;2023-06-14T10:24:03;3.17;;;2.03;;
24517;SDS011;12678;51.336;12.406;2023-06-14T10:26:31;2.88;;;1.65;;
24517;SDS011;12678;51.336;12.406;2023-06-14T10:29:01;2.53;;;1.67;;
24517;SDS011;12678;51.336;12.406;2023-06-14T10:31:40;2.40;;;2.00;;
24517;SDS011;12678;51.336;12.406;2023-06-14T10:34:21;2.70;;;2.33;;
24517;SDS011;12678;51.336;12.406;2023-06-14T10:37:06;2.40;;;2.20;;
24517;SDS011;12678;51.336;12.406;2023-06-14T10:39:39;3.35;;;2.38;;
24517;SDS011;12678;51.336;12.406;2023-06-14T10:42:07;3.58;;;1.88;;
24517;SDS011;12678;51.336;12.406;2023-06-14T10:44:33;5.72;;;2.00;;
24517;SDS011;12678;51.336;12.406;2023-06-14T10:47:10;3.95;;;2.13;;
24517;SDS011;12678;51.336;12.406;2023-06-14T10:49:45;2.45;;;1.80;;
24517;SDS011;12678;51.336;12.406;2023-06-14T10:52:15;3.63;;;1.60;;
24517;SDS011;12678;51.336;12.406;2023-06-14T10:57:29;4.53;;;2.00;;
24517;SDS011;12678;51.336;12.406;2023-06-14T10:59:57;2.38;;;1.90;;
24517;SDS011;12678;51.336;12.406;2023-06-14T11:02:35;1.83;;;1.52;;
24517;SDS011;12678;51.336;12.406;2023-06-14T11:05:25;2.92;;;2.10;;
24517;SDS011;12678;51.336;12.406;2023-06-14T11:10:52;2.20;;;1.52;;
24517;SDS011;12678;51.336;12.406;2023-06-14T11:13:24;5.28;;;2.20;;
24517;SDS011;12678;51.336;12.406;2023-06-14T11:15:51;2.90;;;1.60;;
24517;SDS011;12678;51.336;12.406;2023-06-14T11:18:18;2.70;;;1.23;;
24517;SDS011;12678;51.336;12.406;2023-06-14T11:20:49;2.58;;;1.70;;
24517;SDS011;12678;51.336;12.406;2023-06-14T11:23:14;2.33;;;1.80;;
24517;SDS011;12678;51.336;12.406;2023-06-14T11:25:40;2.83;;;1.90;;
24517;SDS011;12678;51.336;12.406;2023-06-14T11:28:06;2.47;;;2.05;;
24517;SDS011;12678;51.336;12.406;2023-06-14T11:30:32;2.08;;;1.83;;
24517;SDS011;12678;51.336;12.406;2023-06-14T11:32:57;2.08;;;1.70;;
24517;SDS011;12678;51.336;12.406;2023-06-14T11:35:24;2.13;;;1.60;;
24517;SDS011;12678;51.336;12.406;2023-06-14T11:37:56;2.05;;;1.75;;
24517;SDS011;12678;51.336;12.406;2023-06-14T11:40:25;2.30;;;2.10;;
24517;SDS011;12678;51.336;12.406;2023-06-14T11:42:59;2.50;;;1.88;;
24517;SDS011;12678;51.336;12.406;2023-06-14T11:45:26;2.45;;;1.85;;
24517;SDS011;12678;51.336;12.406;2023-06-14T11:47:53;2.28;;;1.73;;
24517;SDS011;12678;51.336;12.406;2023-06-14T11:50:21;3.17;;;2.22;;
24517;SDS011;12678;51.336;12.406;2023-06-14T11:52:57;4.13;;;2.10;;
24517;SDS011;12678;51.336;12.406;2023-06-14T11:55:38;2.40;;;1.90;;
24517;SDS011;12678;51.336;12.406;2023-06-14T11:58:06;2.53;;;1.73;;
24517;SDS011;12678;51.336;12.406;2023-06-14T12:00:32;2.20;;;1.75;;
24517;SDS011;12678;51.336;12.406;2023-06-14T12:03:00;2.15;;;1.88;;
24517;SDS011;12678;51.336;12.406;2023-06-14T12:05:26;2.90;;;2.10;;
24517;SDS011;12678;51.336;12.406;2023-06-14T12:08:03;1.65;;;1.55;;
24517;SDS011;12678;51.336;12.406;2023-06-14T12:10:39;3.50;;;1.90;;
24517;SDS011;12678;51.336;12.406;2023-06-14T12:13:08;4.25;;;2.05;;
24517;SDS011;12678;51.336;12.406;2023-06-14T12:15:34;2.70;;;2.28;;
24517;SDS011;12678;51.336;12.406;2023-06-14T12:18:00;4.25;;;2.05;;
24517;SDS011;12678;51.336;12.406;2023-06-14T12:20:29;3.20;;;2.13;;
24517;SDS011;12678;51.336;12.406;2023-06-14T12:22:58;1.90;;;1.58;;
24517;SDS011;12678;51.336;12.406;2023-06-14T12:25:27;3.67;;;1.80;;
24517;SDS011;12678;51.336;12.406;2023-06-14T12:27:56;2.22;;;1.65;;
24517;SDS011;12678;51.336;12.406;2023-06-14T12:30:22;2.45;;;1.50;;
24517;SDS011;12678;51.336;12.406;2023-06-14T12:32:48;2.10;;;1.90;;
24517;SDS011;12678;51.336;12.406;2023-06-14T12:35:14;2.78;;;2.00;;
24517;SDS011;12678;51.336;12.406;2023-06-14T12:37:40;2.92;;;2.28;;
24517;SDS011;12678;51.336;12.406;2023-06-14T12:40:06;2.42;;;1.98;;
24517;SDS011;12678;51.336;12.406;2023-06-14T12:42:32;3.80;;;1.95;;
24517;SDS011;12678;51.336;12.406;2023-06-14T12:45:01;3.28;;;2.28;;
24517;SDS011;12678;51.336;12.406;2023-06-14T12:47:28;2.90;;;2.00;;
24517;SDS011;12678;51.336;12.406;2023-06-14T12:49:53;3.97;;;2.25;;
24517;SDS011;12678;51.336;12.406;2023-06-14T12:52:19;2.83;;;2.22;;
24517;SDS011;12678;51.336;12.406;2023-06-14T12:54:44;6.22;;;2.38;;
24517;SDS011;12678;51.336;12.406;2023-06-14T12:57:10;7.68;;;1.95;;
24517;SDS011;12678;51.336;12.406;2023-06-14T12:59:36;2.78;;;2.20;;
24517;SDS011;12678;51.336;12.406;2023-06-14T13:02:17;2.92;;;2.33;;
24517;SDS011;12678;51.336;12.406;2023-06-14T13:04:47;2.50;;;1.70;;
24517;SDS011;12678;51.336;12.406;2023-06-14T13:07:12;2.60;;;2.10;;
24517;SDS011;12678;51.336;12.406;2023-06-14T13:09:40;6.82;;;1.83;;
24517;SDS011;12678;51.336;12.406;2023-06-14T13:12:06;2.90;;;1.98;;
24517;SDS011;12678;51.336;12.406;2023-06-14T13:14:32;5.43;;;2.03;;
24517;SDS011;12678;51.336;12.406;2023-06-14T13:16:57;5.65;;;1.90;;
24517;SDS011;12678;51.336;12.406;2023-06-14T13:19:23;4.90;;;2.10;;
24517;SDS011;12678;51.336;12.406;2023-06-14T13:21:49;9.48;;;2.60;;
24517;SDS011;12678;51.336;12.406;2023-06-14T13:24:14;5.22;;;2.00;;
24517;SDS011;12678;51.336;12.406;2023-06-14T13:26:40;2.95;;;1.90;;
24517;SDS011;12678;51.336;12.406;2023-06-14T13:29:06;12.07;;;2.50;;
24517;SDS011;12678;51.336;12.406;2023-06-14T13:31:32;2.72;;;2.10;;
24517;SDS011;12678;51.336;12.406;2023-06-14T13:33:58;5.50;;;2.10;;
24517;SDS011;12678;51.336;12.406;2023-06-14T13:36:23;3.80;;;2.65;;
24517;SDS011;12678;51.336;12.406;2023-06-14T13:38:49;3.30;;;2.33;;
24517;SDS011;12678;51.336;12.406;2023-06-14T13:41:16;4.82;;;2.13;;
24517;SDS011;12678;51.336;12.406;2023-06-14T13:43:42;3.72;;;2.40;;
24517;SDS011;12678;51.336;12.406;2023-06-14T13:46:08;3.33;;;2.22;;
24517;SDS011;12678;51.336;12.406;2023-06-14T13:48:33;3.20;;;2.33;;
24517;SDS011;12678;51.336;12.406;2023-06-14T13:50:59;3.35;;;2.45;;
24517;SDS011;12678;51.336;12.406;2023-06-14T13:53:25;11.88;;;2.80;;
24517;SDS011;12678;51.336;12.406;2023-06-14T13:55:51;5.25;;;2.75;;
24517;SDS011;12678;51.336;12.406;2023-06-14T13:58:17;3.60;;;2.78;;
24517;SDS011;12678;51.336;12.406;2023-06-14T14:00:43;2.45;;;2.25;;
24517;SDS011;12678;51.336;12.406;2023-06-14T14:03:09;3.47;;;2.72;;
24517;SDS011;12678;51.336;12.406;2023-06-14T14:05:35;3.58;;;2.40;;
24517;SDS011;12678;51.336;12.406;2023-06-14T14:08:00;4.15;;;2.70;;
24517;SDS011;12678;51.336;12.406;2023-06-14T14:10:27;3.22;;;2.15;;
24517;SDS011;12678;51.336;12.406;2023-06-14T14:12:52;3.25;;;2.47;;
24517;SDS011;12678;51.336;12.406;2023-06-14T14:15:19;3.28;;;2.58;;
24517;SDS011;12678;51.336;12.406;2023-06-14T14:17:45;2.90;;;2.30;;
24517;SDS011;12678;51.336;12.406;2023-06-14T14:20:12;5.05;;;2.70;;
24517;SDS011;12678;51.336;12.406;2023-06-14T14:22:40;6.63;;;2.55;;
24517;SDS011;12678;51.336;12.406;2023-06-14T14:25:09;2.17;;;1.80;;
24517;SDS011;12678;51.336;12.406;2023-06-14T14:27:35;6.43;;;2.88;;
24517;SDS011;12678;51.336;12.406;2023-06-14T14:30:02;5.93;;;2.15;;
24517;SDS011;12678;51.336;12.406;2023-06-14T14:32:28;3.50;;;2.13;;
24517;SDS011;12678;51.336;12.406;2023-06-14T14:34:54;2.78;;;2.17;;
24517;SDS011;12678;51.336;12.406;2023-06-14T14:37:20;3.25;;;2.15;;
24517;SDS011;12678;51.336;12.406;2023-06-14T14:39:46;2.97;;;2.30;;
24517;SDS011;12678;51.336;12.406;2023-06-14T14:42:12;3.70;;;2.45;;
24517;SDS011;12678;51.336;12.406;2023-06-14T14:44:38;2.65;;;2.10;;
24517;SDS011;12678;51.336;12.406;2023-06-14T14:47:04;2.72;;;2.17;;
24517;SDS011;12678;51.336;12.406;2023-06-14T14:49:30;3.28;;;2.22;;
24517;SDS011;12678;51.336;12.406;2023-06-14T14:51:57;2.70;;;2.10;;